sensor_id;sensor_type;location;lat;lon;timestamp;P1;durP1;ratioP1;P2;durP2;ratioP2
15022;SDS011;19850;49.576;10.880;2023-04-06T00:03:24;5.83;;;4.70;;
15022;SDS011;19850;49.576;10.880;2023-04-06T00:07:29;7.77;;;5.23;;
15022;SDS011;19850;49.576;10.880;2023-04-06T00:11:32;6.33;;;5.40;;
15022;SDS011;19850;49.576;10.880;2023-04-06T00:15:34;7.13;;;4.77;;
15022;SDS011;19850;49.576;10.880;2023-04-06T00:19:37;7.17;;;5.60;;
15022;SDS011;19850;49.576;10.880;2023-04-06T00:23:41;7.17;;;5.77;;
15022;SDS011;19850;49.576;10.880;2023-04-06T00:27:44;7.30;;;5.63;;
15022;SDS011;19850;49.576;10.880;2023-04-06T00:31:47;7.13;;;5.23;;
15022;SDS011;19850;49.576;10.880;2023-04-06T00:35:53;7.13;;;5.30;;
15022;SDS011;19850;49.576;10.880;2023-04-06T00:39:57;7.43;;;5.60;;
15022;SDS011;19850;49.576;10.880;2023-04-06T00:44:00;5.43;;;4.90;;
15022;SDS011;19850;49.576;10.880;2023-04-06T00:48:03;5.10;;;4.60;;
15022;SDS011;19850;49.576;10.880;2023-04-06T00:52:07;6.13;;;5.03;;
15022;SDS011;19850;49.576;10.880;2023-04-06T00:56:11;5.93;;;4.83;;
15022;SDS011;19850;49.576;10.880;2023-04-06T01:00:14;6.60;;;4.97;;
15022;SDS011;19850;49.576;10.880;2023-04-06T01:04:18;6.03;;;5.00;;
15022;SDS011;19850;49.576;10.880;2023-04-06T01:08:20;6.93;;;5.27;;
15022;SDS011;19850;49.576;10.880;2023-04-06T01:12:25;6.97;;;4.20;;
15022;SDS011;19850;49.576;10.880;2023-04-06T01:16:27;5.67;;;4.63;;
15022;SDS011;19850;49.576;10.880;2023-04-06T01:20:32;6.27;;;5.30;;
15022;SDS011;19850;49.576;10.880;2023-04-06T01:24:39;6.50;;;4.97;;
15022;SDS011;19850;49.576;10.880;2023-04-06T01:28:42;6.67;;;5.17;;
15022;SDS011;19850;49.576;10.880;2023-04-06T01:32:45;6.97;;;5.97;;
15022;SDS011;19850;49.576;10.880;2023-04-06T01:36:48;7.63;;;5.70;;
15022;SDS011;19850;49.576;10.880;2023-04-06T01:40:55;7.10;;;5.63;;
15022;SDS011;19850;49.576;10.880;2023-04-06T01:44:58;7.43;;;5.90;;
15022;SDS011;19850;49.576;10.880;2023-04-06T01:49:01;7.87;;;6.03;;
15022;SDS011;19850;49.576;10.880;2023-04-06T01:53:04;8.43;;;5.97;;
15022;SDS011;19850;49.576;10.880;2023-04-06T01:57:09;9.20;;;5.63;;
15022;SDS011;19850;49.576;10.880;2023-04-06T02:01:12;6.93;;;5.67;;
15022;SDS011;19850;49.576;10.880;2023-04-06T02:05:15;7.00;;;5.70;;
15022;SDS011;19850;49.576;10.880;2023-04-06T02:09:17;7.03;;;5.73;;
15022;SDS011;19850;49.576;10.880;2023-04-06T02:13:22;7.97;;;5.70;;
15022;SDS011;19850;49.576;10.880;2023-04-06T02:17:24;7.97;;;5.50;;
15022;SDS011;19850;49.576;10.880;2023-04-06T02:21:27;7.83;;;5.73;;
15022;SDS011;19850;49.576;10.880;2023-04-06T02:25:31;7.50;;;5.63;;
15022;SDS011;19850;49.576;10.880;2023-04-06T02:29:35;7.10;;;5.63;;
15022;SDS011;19850;49.576;10.880;2023-04-06T02:33:38;6.93;;;6.00;;
15022;SDS011;19850;49.576;10.880;2023-04-06T02:37:41;8.10;;;6.00;;
15022;SDS011;19850;49.576;10.880;2023-04-06T02:41:44;6.33;;;5.53;;
15022;SDS011;19850;49.576;10.880;2023-04-06T02:45:48;7.33;;;5.63;;
15022;SDS011;19850;49.576;10.880;2023-04-06T02:49:51;5.80;;;5.27;;
15022;SDS011;19850;49.576;10.880;2023-04-06T02:53:53;5.97;;;5.20;;
15022;SDS011;19850;49.576;10.880;2023-04-06T02:57:56;7.07;;;5.13;;
15022;SDS011;19850;49.576;10.880;2023-04-06T03:02:00;6.43;;;4.87;;
15022;SDS011;19850;49.576;10.880;2023-04-06T03:06:03;7.03;;;4.70;;
15022;SDS011;19850;49.576;10.880;2023-04-06T03:10:07;5.67;;;4.50;;
15022;SDS011;19850;49.576;10.880;2023-04-06T03:14:10;5.27;;;4.47;;
15022;SDS011;19850;49.576;10.880;2023-04-06T03:18:15;5.63;;;4.70;;
15022;SDS011;19850;49.576;10.880;2023-04-06T03:22:19;6.40;;;5.10;;
15022;SDS011;19850;49.576;10.880;2023-04-06T03:26:22;8.50;;;4.80;;
15022;SDS011;19850;49.576;10.880;2023-04-06T03:30:25;7.50;;;4.70;;
15022;SDS011;19850;49.576;10.880;2023-04-06T03:34:29;6.57;;;5.10;;
15022;SDS011;19850;49.576;10.880;2023-04-06T03:38:32;9.03;;;5.43;;
15022;SDS011;19850;49.576;10.880;2023-04-06T03:42:35;6.67;;;4.90;;
15022;SDS011;19850;49.576;10.880;2023-04-06T03:46:40;5.80;;;5.07;;
15022;SDS011;19850;49.576;10.880;2023-04-06T03:50:44;6.83;;;4.97;;
15022;SDS011;19850;49.576;10.880;2023-04-06T03:54:47;7.33;;;5.37;;
15022;SDS011;19850;49.576;10.880;2023-04-06T03:58:50;6.87;;;5.20;;
15022;SDS011;19850;49.576;10.880;2023-04-06T04:02:53;9.07;;;5.30;;
15022;SDS011;19850;49.576;10.880;2023-04-06T04:06:57;7.33;;;5.10;;
15022;SDS011;19850;49.576;10.880;2023-04-06T04:11:01;8.50;;;5.47;;
15022;SDS011;19850;49.576;10.880;2023-04-06T04:15:04;7.13;;;4.73;;
15022;SDS011;19850;49.576;10.880;2023-04-06T04:19:07;7.00;;;5.13;;
15022;SDS011;19850;49.576;10.880;2023-04-06T04:23:12;7.17;;;5.07;;
15022;SDS011;19850;49.576;10.880;2023-04-06T04:27:15;7.80;;;5.60;;
15022;SDS011;19850;49.576;10.880;2023-04-06T04:31:18;8.00;;;5.77;;
15022;SDS011;19850;49.576;10.880;2023-04-06T04:35:24;6.97;;;4.97;;
15022;SDS011;19850;49.576;10.880;2023-04-06T04:39:30;7.33;;;5.40;;
15022;SDS011;19850;49.576;10.880;2023-04-06T04:43:33;10.37;;;5.37;;
15022;SDS011;19850;49.576;10.880;2023-04-06T04:47:36;6.93;;;5.20;;
15022;SDS011;19850;49.576;10.880;2023-04-06T04:51:39;6.23;;;4.97;;
15022;SDS011;19850;49.576;10.880;2023-04-06T04:55:43;7.70;;;5.30;;
15022;SDS011;19850;49.576;10.880;2023-04-06T04:59:46;6.73;;;5.30;;
15022;SDS011;19850;49.576;10.880;2023-04-06T05:03:50;6.93;;;4.90;;
15022;SDS011;19850;49.576;10.880;2023-04-06T05:07:53;8.27;;;5.10;;
15022;SDS011;19850;49.576;10.880;2023-04-06T05:11:57;8.83;;;6.60;;
15022;SDS011;19850;49.576;10.880;2023-04-06T05:16:01;8.57;;;6.00;;
15022;SDS011;19850;49.576;10.880;2023-04-06T05:20:04;9.07;;;6.10;;
15022;SDS011;19850;49.576;10.880;2023-04-06T05:24:07;8.77;;;5.80;;
15022;SDS011;19850;49.576;10.880;2023-04-06T05:28:12;9.33;;;6.00;;
15022;SDS011;19850;49.576;10.880;2023-04-06T05:32:16;8.23;;;5.73;;
15022;SDS011;19850;49.576;10.880;2023-04-06T05:36:23;7.90;;;5.67;;
15022;SDS011;19850;49.576;10.880;2023-04-06T05:40:26;9.00;;;6.00;;
15022;SDS011;19850;49.576;10.880;2023-04-06T05:44:30;7.30;;;5.37;;
15022;SDS011;19850;49.576;10.880;2023-04-06T05:48:33;7.83;;;5.13;;
15022;SDS011;19850;49.576;10.880;2023-04-06T05:52:36;7.00;;;5.37;;
15022;SDS011;19850;49.576;10.880;2023-04-06T05:56:39;5.40;;;4.70;;
15022;SDS011;19850;49.576;10.880;2023-04-06T06:00:43;7.43;;;5.30;;
15022;SDS011;19850;49.576;10.880;2023-04-06T06:04:47;6.67;;;5.10;;
15022;SDS011;19850;49.576;10.880;2023-04-06T06:08:50;6.17;;;5.00;;
15022;SDS011;19850;49.576;10.880;2023-04-06T06:12:52;8.03;;;5.07;;
15022;SDS011;19850;49.576;10.880;2023-04-06T06:16:57;6.70;;;5.13;;
15022;SDS011;19850;49.576;10.880;2023-04-06T06:21:00;5.40;;;4.80;;
15022;SDS011;19850;49.576;10.880;2023-04-06T06:25:03;6.97;;;5.07;;
15022;SDS011;19850;49.576;10.880;2023-04-06T06:29:06;7.10;;;5.43;;
15022;SDS011;19850;49.576;10.880;2023-04-06T06:33:11;7.30;;;5.20;;
15022;SDS011;19850;49.576;10.880;2023-04-06T06:37:14;7.17;;;4.80;;
15022;SDS011;19850;49.576;10.880;2023-04-06T06:41:16;7.93;;;5.30;;
15022;SDS011;19850;49.576;10.880;2023-04-06T06:45:19;9.07;;;5.20;;
15022;SDS011;19850;49.576;10.880;2023-04-06T06:49:24;5.80;;;4.77;;
15022;SDS011;19850;49.576;10.880;2023-04-06T06:53:27;7.63;;;5.20;;
15022;SDS011;19850;49.576;10.880;2023-04-06T06:57:30;7.67;;;5.40;;
15022;SDS011;19850;49.576;10.880;2023-04-06T07:01:32;6.73;;;4.90;;
15022;SDS011;19850;49.576;10.880;2023-04-06T07:05:37;5.67;;;4.67;;
15022;SDS011;19850;49.576;10.880;2023-04-06T07:09:41;7.83;;;5.43;;
15022;SDS011;19850;49.576;10.880;2023-04-06T07:13:44;8.00;;;5.27;;
15022;SDS011;19850;49.576;10.880;2023-04-06T07:17:47;6.60;;;5.17;;
15022;SDS011;19850;49.576;10.880;2023-04-06T07:21:52;7.63;;;4.93;;
15022;SDS011;19850;49.576;10.880;2023-04-06T07:25:55;6.13;;;4.87;;
15022;SDS011;19850;49.576;10.880;2023-04-06T07:29:58;5.63;;;5.07;;
15022;SDS011;19850;49.576;10.880;2023-04-06T07:34:01;8.53;;;5.20;;
15022;SDS011;19850;49.576;10.880;2023-04-06T07:38:05;7.57;;;5.50;;
15022;SDS011;19850;49.576;10.880;2023-04-06T07:42:08;9.10;;;5.30;;
15022;SDS011;19850;49.576;10.880;2023-04-06T07:46:11;8.33;;;5.80;;
15022;SDS011;19850;49.576;10.880;2023-04-06T07:50:14;6.07;;;5.47;;
15022;SDS011;19850;49.576;10.880;2023-04-06T07:54:18;9.07;;;5.10;;
15022;SDS011;19850;49.576;10.880;2023-04-06T07:58:21;5.07;;;2.80;;
15022;SDS011;19850;49.576;10.880;2023-04-06T08:02:24;7.87;;;3.30;;
15022;SDS011;19850;49.576;10.880;2023-04-06T08:06:30;8.30;;;5.70;;
15022;SDS011;19850;49.576;10.880;2023-04-06T08:10:34;7.97;;;6.00;;
15022;SDS011;19850;49.576;10.880;2023-04-06T08:14:38;6.50;;;5.87;;
15022;SDS011;19850;49.576;10.880;2023-04-06T08:18:41;6.30;;;5.60;;
15022;SDS011;19850;49.576;10.880;2023-04-06T08:22:44;6.33;;;5.73;;
15022;SDS011;19850;49.576;10.880;2023-04-06T08:26:48;8.17;;;5.80;;
15022;SDS011;19850;49.576;10.880;2023-04-06T08:30:51;7.17;;;5.50;;
15022;SDS011;19850;49.576;10.880;2023-04-06T08:34:54;6.87;;;6.00;;
15022;SDS011;19850;49.576;10.880;2023-04-06T08:38:58;6.93;;;5.70;;
15022;SDS011;19850;49.576;10.880;2023-04-06T08:43:03;7.53;;;6.23;;
15022;SDS011;19850;49.576;10.880;2023-04-06T08:47:09;13.90;;;6.00;;
15022;SDS011;19850;49.576;10.880;2023-04-06T08:51:13;8.17;;;6.27;;
15022;SDS011;19850;49.576;10.880;2023-04-06T08:55:17;8.20;;;6.90;;
15022;SDS011;19850;49.576;10.880;2023-04-06T08:59:22;7.60;;;6.37;;
15022;SDS011;19850;49.576;10.880;2023-04-06T09:03:26;7.07;;;6.37;;
15022;SDS011;19850;49.576;10.880;2023-04-06T09:07:30;8.00;;;7.00;;
15022;SDS011;19850;49.576;10.880;2023-04-06T09:11:46;7.70;;;6.30;;
15022;SDS011;19850;49.576;10.880;2023-04-06T09:15:59;7.87;;;6.83;;
15022;SDS011;19850;49.576;10.880;2023-04-06T09:20:03;9.40;;;7.20;;
15022;SDS011;19850;49.576;10.880;2023-04-06T09:24:06;7.93;;;7.10;;
15022;SDS011;19850;49.576;10.880;2023-04-06T09:28:10;7.83;;;7.00;;
15022;SDS011;19850;49.576;10.880;2023-04-06T09:32:15;8.40;;;7.50;;
15022;SDS011;19850;49.576;10.880;2023-04-06T09:36:18;8.93;;;8.00;;
15022;SDS011;19850;49.576;10.880;2023-04-06T09:40:22;8.60;;;7.80;;
15022;SDS011;19850;49.576;10.880;2023-04-06T09:44:26;9.60;;;8.27;;
15022;SDS011;19850;49.576;10.880;2023-04-06T09:48:31;9.00;;;8.07;;
15022;SDS011;19850;49.576;10.880;2023-04-06T09:52:37;9.53;;;8.23;;
15022;SDS011;19850;49.576;10.880;2023-04-06T09:56:45;8.40;;;7.60;;
15022;SDS011;19850;49.576;10.880;2023-04-06T10:00:51;9.80;;;8.37;;
15022;SDS011;19850;49.576;10.880;2023-04-06T10:05:01;8.60;;;7.80;;
15022;SDS011;19850;49.576;10.880;2023-04-06T10:09:07;9.30;;;7.63;;
15022;SDS011;19850;49.576;10.880;2023-04-06T10:13:12;10.07;;;8.37;;
15022;SDS011;19850;49.576;10.880;2023-04-06T10:17:15;9.33;;;8.43;;
15022;SDS011;19850;49.576;10.880;2023-04-06T10:21:20;9.83;;;8.90;;
15022;SDS011;19850;49.576;10.880;2023-04-06T10:25:26;9.53;;;8.67;;
15022;SDS011;19850;49.576;10.880;2023-04-06T10:29:40;9.30;;;8.27;;
15022;SDS011;19850;49.576;10.880;2023-04-06T10:33:52;9.23;;;8.43;;
15022;SDS011;19850;49.576;10.880;2023-04-06T10:38:02;9.00;;;8.10;;
15022;SDS011;19850;49.576;10.880;2023-04-06T10:42:06;8.37;;;7.67;;
15022;SDS011;19850;49.576;10.880;2023-04-06T10:46:09;8.80;;;8.00;;
15022;SDS011;19850;49.576;10.880;2023-04-06T10:50:14;8.20;;;7.50;;
15022;SDS011;19850;49.576;10.880;2023-04-06T10:54:20;7.90;;;7.20;;
15022;SDS011;19850;49.576;10.880;2023-04-06T10:58:24;7.60;;;7.00;;
15022;SDS011;19850;49.576;10.880;2023-04-06T11:02:27;8.67;;;7.93;;
15022;SDS011;19850;49.576;10.880;2023-04-06T11:06:30;8.23;;;7.53;;
15022;SDS011;19850;49.576;10.880;2023-04-06T11:10:35;8.37;;;7.67;;
15022;SDS011;19850;49.576;10.880;2023-04-06T11:14:37;8.03;;;7.30;;
15022;SDS011;19850;49.576;10.880;2023-04-06T11:18:47;7.93;;;7.23;;
15022;SDS011;19850;49.576;10.880;2023-04-06T11:22:53;7.50;;;6.90;;
15022;SDS011;19850;49.576;10.880;2023-04-06T11:26:58;8.03;;;7.30;;
15022;SDS011;19850;49.576;10.880;2023-04-06T11:31:02;8.90;;;8.03;;
15022;SDS011;19850;49.576;10.880;2023-04-06T11:35:05;8.77;;;8.07;;
15022;SDS011;19850;49.576;10.880;2023-04-06T11:39:08;7.87;;;7.20;;
15022;SDS011;19850;49.576;10.880;2023-04-06T11:43:13;7.30;;;6.70;;
15022;SDS011;19850;49.576;10.880;2023-04-06T11:47:18;7.87;;;7.10;;
15022;SDS011;19850;49.576;10.880;2023-04-06T11:51:21;7.73;;;7.03;;
15022;SDS011;19850;49.576;10.880;2023-04-06T11:55:24;7.90;;;7.20;;
15022;SDS011;19850;49.576;10.880;2023-04-06T11:59:29;7.53;;;6.83;;
15022;SDS011;19850;49.576;10.880;2023-04-06T12:03:32;6.77;;;6.27;;
15022;SDS011;19850;49.576;10.880;2023-04-06T12:07:36;7.50;;;6.80;;
15022;SDS011;19850;49.576;10.880;2023-04-06T12:11:38;7.23;;;6.53;;
15022;SDS011;19850;49.576;10.880;2023-04-06T12:15:43;6.63;;;6.03;;
15022;SDS011;19850;49.576;10.880;2023-04-06T12:19:46;6.50;;;6.00;;
15022;SDS011;19850;49.576;10.880;2023-04-06T12:23:49;7.30;;;5.97;;
15022;SDS011;19850;49.576;10.880;2023-04-06T12:27:52;5.90;;;5.40;;
15022;SDS011;19850;49.576;10.880;2023-04-06T12:31:59;7.07;;;6.47;;
15022;SDS011;19850;49.576;10.880;2023-04-06T12:36:02;6.13;;;5.63;;
15022;SDS011;19850;49.576;10.880;2023-04-06T12:40:06;6.77;;;6.17;;
15022;SDS011;19850;49.576;10.880;2023-04-06T12:44:11;6.63;;;6.03;;
15022;SDS011;19850;49.576;10.880;2023-04-06T12:48:15;6.23;;;5.63;;
15022;SDS011;19850;49.576;10.880;2023-04-06T12:52:18;7.30;;;6.13;;
15022;SDS011;19850;49.576;10.880;2023-04-06T12:56:21;6.07;;;5.57;;
15022;SDS011;19850;49.576;10.880;2023-04-06T13:00:24;6.50;;;5.90;;
15022;SDS011;19850;49.576;10.880;2023-04-06T13:04:29;6.67;;;6.17;;
15022;SDS011;19850;49.576;10.880;2023-04-06T13:08:32;6.43;;;5.50;;
15022;SDS011;19850;49.576;10.880;2023-04-06T13:12:35;5.87;;;5.47;;
15022;SDS011;19850;49.576;10.880;2023-04-06T13:16:38;6.53;;;6.03;;
15022;SDS011;19850;49.576;10.880;2023-04-06T13:20:42;6.70;;;6.20;;
15022;SDS011;19850;49.576;10.880;2023-04-06T13:24:45;5.93;;;5.40;;
15022;SDS011;19850;49.576;10.880;2023-04-06T13:28:48;8.83;;;7.27;;
15022;SDS011;19850;49.576;10.880;2023-04-06T13:32:51;6.57;;;6.07;;
15022;SDS011;19850;49.576;10.880;2023-04-06T13:36:55;6.87;;;6.17;;
15022;SDS011;19850;49.576;10.880;2023-04-06T13:40:58;7.50;;;6.53;;
15022;SDS011;19850;49.576;10.880;2023-04-06T13:45:01;7.53;;;6.83;;
15022;SDS011;19850;49.576;10.880;2023-04-06T13:49:04;6.67;;;6.13;;
15022;SDS011;19850;49.576;10.880;2023-04-06T13:53:08;7.00;;;6.40;;
15022;SDS011;19850;49.576;10.880;2023-04-06T13:57:11;6.30;;;5.80;;
15022;SDS011;19850;49.576;10.880;2023-04-06T14:01:14;7.17;;;6.57;;
15022;SDS011;19850;49.576;10.880;2023-04-06T14:05:17;7.40;;;6.70;;
15022;SDS011;19850;49.576;10.880;2023-04-06T14:09:21;6.93;;;6.30;;
15022;SDS011;19850;49.576;10.880;2023-04-06T14:13:24;6.73;;;6.13;;
15022;SDS011;19850;49.576;10.880;2023-04-06T14:17:27;9.83;;;7.97;;
15022;SDS011;19850;49.576;10.880;2023-04-06T14:21:30;7.10;;;6.40;;
15022;SDS011;19850;49.576;10.880;2023-04-06T14:25:35;6.57;;;6.03;;
15022;SDS011;19850;49.576;10.880;2023-04-06T14:29:38;6.70;;;6.10;;
15022;SDS011;19850;49.576;10.880;2023-04-06T14:33:41;5.60;;;5.10;;
15022;SDS011;19850;49.576;10.880;2023-04-06T14:37:44;6.23;;;5.73;;
15022;SDS011;19850;49.576;10.880;2023-04-06T14:41:49;5.63;;;5.13;;
15022;SDS011;19850;49.576;10.880;2023-04-06T14:45:52;5.60;;;5.10;;
15022;SDS011;19850;49.576;10.880;2023-04-06T14:49:55;5.10;;;4.70;;
15022;SDS011;19850;49.576;10.880;2023-04-06T14:53:58;7.33;;;5.53;;
15022;SDS011;19850;49.576;10.880;2023-04-06T14:58:05;5.50;;;5.00;;
15022;SDS011;19850;49.576;10.880;2023-04-06T15:02:08;4.60;;;4.20;;
15022;SDS011;19850;49.576;10.880;2023-04-06T15:06:11;5.50;;;5.00;;
15022;SDS011;19850;49.576;10.880;2023-04-06T15:10:16;5.97;;;5.50;;
15022;SDS011;19850;49.576;10.880;2023-04-06T15:14:20;5.83;;;5.23;;
15022;SDS011;19850;49.576;10.880;2023-04-06T15:18:23;5.37;;;4.97;;
15022;SDS011;19850;49.576;10.880;2023-04-06T15:22:26;5.83;;;5.33;;
15022;SDS011;19850;49.576;10.880;2023-04-06T15:26:29;5.67;;;5.17;;
15022;SDS011;19850;49.576;10.880;2023-04-06T15:30:34;4.87;;;4.47;;
15022;SDS011;19850;49.576;10.880;2023-04-06T15:34:37;5.77;;;5.27;;
15022;SDS011;19850;49.576;10.880;2023-04-06T15:38:39;5.83;;;5.10;;
15022;SDS011;19850;49.576;10.880;2023-04-06T15:42:42;5.63;;;5.13;;
15022;SDS011;19850;49.576;10.880;2023-04-06T15:46:46;5.63;;;5.13;;
15022;SDS011;19850;49.576;10.880;2023-04-06T15:50:49;5.50;;;5.10;;
15022;SDS011;19850;49.576;10.880;2023-04-06T15:54:52;5.23;;;4.83;;
15022;SDS011;19850;49.576;10.880;2023-04-06T15:58:55;6.33;;;5.73;;
15022;SDS011;19850;49.576;10.880;2023-04-06T16:02:59;6.40;;;5.80;;
15022;SDS011;19850;49.576;10.880;2023-04-06T16:07:06;6.80;;;5.57;;
15022;SDS011;19850;49.576;10.880;2023-04-06T16:11:10;9.13;;;5.23;;
15022;SDS011;19850;49.576;10.880;2023-04-06T16:15:14;5.87;;;5.37;;
15022;SDS011;19850;49.576;10.880;2023-04-06T16:19:18;7.00;;;6.30;;
15022;SDS011;19850;49.576;10.880;2023-04-06T16:23:21;5.70;;;5.23;;
15022;SDS011;19850;49.576;10.880;2023-04-06T16:27:24;6.30;;;5.37;;
15022;SDS011;19850;49.576;10.880;2023-04-06T16:31:28;6.40;;;5.90;;
15022;SDS011;19850;49.576;10.880;2023-04-06T16:35:32;6.80;;;6.20;;
15022;SDS011;19850;49.576;10.880;2023-04-06T16:39:35;6.13;;;5.53;;
15022;SDS011;19850;49.576;10.880;2023-04-06T16:43:39;7.60;;;6.50;;
15022;SDS011;19850;49.576;10.880;2023-04-06T16:47:42;6.77;;;6.10;;
15022;SDS011;19850;49.576;10.880;2023-04-06T16:51:47;8.03;;;6.40;;
15022;SDS011;19850;49.576;10.880;2023-04-06T16:55:50;6.50;;;5.90;;
15022;SDS011;19850;49.576;10.880;2023-04-06T16:59:53;6.87;;;6.00;;
15022;SDS011;19850;49.576;10.880;2023-04-06T17:03:56;7.00;;;6.30;;
15022;SDS011;19850;49.576;10.880;2023-04-06T17:08:00;12.80;;;10.73;;
15022;SDS011;19850;49.576;10.880;2023-04-06T17:12:04;9.53;;;8.63;;
15022;SDS011;19850;49.576;10.880;2023-04-06T17:16:07;12.67;;;11.30;;
15022;SDS011;19850;49.576;10.880;2023-04-06T17:20:10;9.93;;;8.93;;
15022;SDS011;19850;49.576;10.880;2023-04-06T17:24:14;12.53;;;11.23;;
15022;SDS011;19850;49.576;10.880;2023-04-06T17:28:17;10.17;;;9.07;;
15022;SDS011;19850;49.576;10.880;2023-04-06T17:32:20;11.30;;;9.50;;
15022;SDS011;19850;49.576;10.880;2023-04-06T17:36:23;8.67;;;7.77;;
15022;SDS011;19850;49.576;10.880;2023-04-06T17:40:29;8.83;;;7.60;;
15022;SDS011;19850;49.576;10.880;2023-04-06T17:44:33;7.23;;;6.53;;
15022;SDS011;19850;49.576;10.880;2023-04-06T17:48:35;8.03;;;7.23;;
15022;SDS011;19850;49.576;10.880;2023-04-06T17:52:38;8.93;;;7.90;;
15022;SDS011;19850;49.576;10.880;2023-04-06T17:56:43;7.37;;;6.70;;
15022;SDS011;19850;49.576;10.880;2023-04-06T18:00:49;8.27;;;7.30;;
15022;SDS011;19850;49.576;10.880;2023-04-06T18:04:56;11.83;;;10.57;;
15022;SDS011;19850;49.576;10.880;2023-04-06T18:08:59;7.70;;;6.90;;
15022;SDS011;19850;49.576;10.880;2023-04-06T18:13:06;6.10;;;5.50;;
15022;SDS011;19850;49.576;10.880;2023-04-06T18:17:08;6.83;;;6.10;;
15022;SDS011;19850;49.576;10.880;2023-04-06T18:21:11;8.97;;;5.00;;
15022;SDS011;19850;49.576;10.880;2023-04-06T18:25:14;6.63;;;5.57;;
15022;SDS011;19850;49.576;10.880;2023-04-06T18:29:18;8.93;;;5.00;;
15022;SDS011;19850;49.576;10.880;2023-04-06T18:33:21;6.10;;;4.53;;
15022;SDS011;19850;49.576;10.880;2023-04-06T18:37:24;8.43;;;5.20;;
15022;SDS011;19850;49.576;10.880;2023-04-06T18:41:27;6.83;;;6.13;;
15022;SDS011;19850;49.576;10.880;2023-04-06T18:45:33;6.60;;;5.93;;
15022;SDS011;19850;49.576;10.880;2023-04-06T18:49:38;14.37;;;10.07;;
15022;SDS011;19850;49.576;10.880;2023-04-06T18:53:41;15.50;;;12.87;;
15022;SDS011;19850;49.576;10.880;2023-04-06T18:57:44;9.03;;;7.70;;
15022;SDS011;19850;49.576;10.880;2023-04-06T19:01:49;8.47;;;6.17;;
15022;SDS011;19850;49.576;10.880;2023-04-06T19:05:54;5.57;;;5.00;;
15022;SDS011;19850;49.576;10.880;2023-04-06T19:09:57;7.20;;;6.60;;
15022;SDS011;19850;49.576;10.880;2023-04-06T19:14:00;6.83;;;6.20;;
15022;SDS011;19850;49.576;10.880;2023-04-06T19:18:05;8.17;;;5.40;;
15022;SDS011;19850;49.576;10.880;2023-04-06T19:22:08;5.30;;;4.77;;
15022;SDS011;19850;49.576;10.880;2023-04-06T19:26:12;5.57;;;4.57;;
15022;SDS011;19850;49.576;10.880;2023-04-06T19:30:16;6.73;;;6.03;;
15022;SDS011;19850;49.576;10.880;2023-04-06T19:34:21;9.50;;;6.67;;
15022;SDS011;19850;49.576;10.880;2023-04-06T19:38:25;8.13;;;7.40;;
15022;SDS011;19850;49.576;10.880;2023-04-06T19:42:29;12.40;;;9.60;;
15022;SDS011;19850;49.576;10.880;2023-04-06T19:46:33;22.53;;;14.83;;
15022;SDS011;19850;49.576;10.880;2023-04-06T19:50:37;18.27;;;10.03;;
15022;SDS011;19850;49.576;10.880;2023-04-06T19:54:40;9.73;;;7.60;;
15022;SDS011;19850;49.576;10.880;2023-04-06T19:58:44;11.70;;;8.73;;
15022;SDS011;19850;49.576;10.880;2023-04-06T20:02:47;14.57;;;10.63;;
15022;SDS011;19850;49.576;10.880;2023-04-06T20:06:51;20.80;;;15.57;;
15022;SDS011;19850;49.576;10.880;2023-04-06T20:10:58;12.10;;;10.20;;
15022;SDS011;19850;49.576;10.880;2023-04-06T20:15:02;10.80;;;8.83;;
15022;SDS011;19850;49.576;10.880;2023-04-06T20:19:05;10.60;;;8.37;;
15022;SDS011;19850;49.576;10.880;2023-04-06T20:23:10;10.70;;;9.60;;
15022;SDS011;19850;49.576;10.880;2023-04-06T20:27:13;8.67;;;7.70;;
15022;SDS011;19850;49.576;10.880;2023-04-06T20:31:17;8.83;;;7.47;;
15022;SDS011;19850;49.576;10.880;2023-04-06T20:35:19;9.33;;;7.63;;
15022;SDS011;19850;49.576;10.880;2023-04-06T20:39:24;9.33;;;8.40;;
15022;SDS011;19850;49.576;10.880;2023-04-06T20:43:28;8.30;;;7.50;;
15022;SDS011;19850;49.576;10.880;2023-04-06T20:47:31;8.77;;;7.97;;
15022;SDS011;19850;49.576;10.880;2023-04-06T20:51:35;10.13;;;9.00;;
15022;SDS011;19850;49.576;10.880;2023-04-06T20:55:40;10.57;;;8.33;;
15022;SDS011;19850;49.576;10.880;2023-04-06T20:59:42;12.07;;;10.20;;
15022;SDS011;19850;49.576;10.880;2023-04-06T21:03:46;10.10;;;8.80;;
15022;SDS011;19850;49.576;10.880;2023-04-06T21:07:49;9.40;;;8.50;;
15022;SDS011;19850;49.576;10.880;2023-04-06T21:11:54;10.43;;;8.87;;
15022;SDS011;19850;49.576;10.880;2023-04-06T21:15:57;10.13;;;9.10;;
15022;SDS011;19850;49.576;10.880;2023-04-06T21:20:00;10.23;;;8.70;;
15022;SDS011;19850;49.576;10.880;2023-04-06T21:24:04;11.80;;;9.13;;
15022;SDS011;19850;49.576;10.880;2023-04-06T21:28:08;10.07;;;8.40;;
15022;SDS011;19850;49.576;10.880;2023-04-06T21:32:11;11.20;;;8.60;;
15022;SDS011;19850;49.576;10.880;2023-04-06T21:36:14;10.23;;;8.17;;
15022;SDS011;19850;49.576;10.880;2023-04-06T21:40:16;9.60;;;7.83;;
15022;SDS011;19850;49.576;10.880;2023-04-06T21:44:22;9.57;;;8.30;;
15022;SDS011;19850;49.576;10.880;2023-04-06T21:48:25;8.93;;;8.13;;
15022;SDS011;19850;49.576;10.880;2023-04-06T21:52:27;10.47;;;8.30;;
15022;SDS011;19850;49.576;10.880;2023-04-06T21:56:30;11.67;;;8.53;;
15022;SDS011;19850;49.576;10.880;2023-04-06T22:00:35;10.17;;;8.30;;
15022;SDS011;19850;49.576;10.880;2023-04-06T22:04:38;8.30;;;7.50;;
15022;SDS011;19850;49.576;10.880;2023-04-06T22:08:41;8.67;;;7.70;;
15022;SDS011;19850;49.576;10.880;2023-04-06T22:12:44;8.70;;;7.80;;
15022;SDS011;19850;49.576;10.880;2023-04-06T22:16:48;8.13;;;7.30;;
15022;SDS011;19850;49.576;10.880;2023-04-06T22:20:51;8.83;;;7.50;;
15022;SDS011;19850;49.576;10.880;2023-04-06T22:24:54;11.47;;;10.27;;
15022;SDS011;19850;49.576;10.880;2023-04-06T22:28:58;16.47;;;13.80;;
15022;SDS011;19850;49.576;10.880;2023-04-06T22:33:02;12.10;;;10.90;;
15022;SDS011;19850;49.576;10.880;2023-04-06T22:37:05;12.77;;;9.40;;
15022;SDS011;19850;49.576;10.880;2023-04-06T22:41:08;10.47;;;8.93;;
15022;SDS011;19850;49.576;10.880;2023-04-06T22:45:11;10.10;;;9.00;;
15022;SDS011;19850;49.576;10.880;2023-04-06T22:49:15;9.00;;;8.10;;
15022;SDS011;19850;49.576;10.880;2023-04-06T22:53:18;9.83;;;8.87;;
15022;SDS011;19850;49.576;10.880;2023-04-06T22:57:21;10.10;;;9.13;;
15022;SDS011;19850;49.576;10.880;2023-04-06T23:01:23;12.67;;;11.20;;
15022;SDS011;19850;49.576;10.880;2023-04-06T23:05:27;13.67;;;11.70;;
15022;SDS011;19850;49.576;10.880;2023-04-06T23:09:30;12.83;;;11.30;;
15022;SDS011;19850;49.576;10.880;2023-04-06T23:13:33;15.80;;;11.30;;
15022;SDS011;19850;49.576;10.880;2023-04-06T23:17:36;15.67;;;12.07;;
15022;SDS011;19850;49.576;10.880;2023-04-06T23:21:43;15.93;;;13.70;;
15022;SDS011;19850;49.576;10.880;2023-04-06T23:25:46;16.77;;;12.67;;
15022;SDS011;19850;49.576;10.880;2023-04-06T23:29:49;13.37;;;11.97;;
15022;SDS011;19850;49.576;10.880;2023-04-06T23:33:51;15.17;;;12.23;;
15022;SDS011;19850;49.576;10.880;2023-04-06T23:37:56;12.70;;;11.40;;
15022;SDS011;19850;49.576;10.880;2023-04-06T23:41:59;14.07;;;11.80;;
15022;SDS011;19850;49.576;10.880;2023-04-06T23:46:02;11.63;;;10.43;;
15022;SDS011;19850;49.576;10.880;2023-04-06T23:50:05;11.17;;;9.00;;
15022;SDS011;19850;49.576;10.880;2023-04-06T23:54:10;11.07;;;8.90;;
15022;SDS011;19850;49.576;10.880;2023-04-06T23:58:13;10.83;;;8.87;;
